Guilford, Missouri
Current Conditions -  °F | °C
As of 3:53 AM on Friday 24 Oct 2014 (Local Time) from KSTJ Reporting Station
Moderate Fog Moderate Fog  
Wind Chill: 53°   Ceiling: 700
Heat Index: 53°   Visibility: 0.25mi
Dew Point: 53°   Wind: 5mph
Humidity: 100%   Direction: 190°S
Pressure: 30.04"   Gusts: NA
Location:  40.17°N, 94.74°W
Report Text: KSTJ 240853Z AUTO 19004KT 1/4SM R35/2800V6000FT FG VV007 12/12 A3004 RMK AO2 SLP170 T01170117 58007
Loading
Personal Weather Stations






























Interactive Weather Map
Tropical Storm Tracking
New forecast layout! Learn more

10-Day Weather Forecast

Advertisements
Track Severe Weather on mobile